Meteo Giornale » Osservazioni meteo Bosnia-Erzegovina » Tuzla

ore: 00:00 - Osservazioni Meteo Tuzla
Lat. 44° 33' N Lon. 18° 42' E Alt. 306 metri s.l.m.

nebbia Europe/Sarajevo

8 °C

Nebbia

Temp. 24 Ore

5 °C

25 °C

Nord

1.8 Km/h

Dew point 8 °C

Umidità 100 %

Visibilità  0.6 Km

Il sole sorge alle ore 06:57

Il sole tramonta alle ore 18:04

Data e Ora Cielo e Fenomeni T °C DP °C Um. % Pres. hPa Vis. km Vento km/h
Oggi h: 00:00 nebbia Nebbia 8 8 100 1022 0.6 N 1.8
Ieri h: 23:30 foschia Foschia 9 8 93 1022 4 N 3.7
Ieri h: 23:00 sereno Sereno 9 8 93 1022 3 N 5.5
Ieri h: 22:30 sereno Sereno 11 10 93 1022 10 N 3.7
Ieri h: 22:00 sereno Sereno 10 9 93 1022 10 N 1.8
Ieri h: 21:30 sereno Sereno 11 10 93 1022 10 N 1.8
Ieri h: 21:00 sereno Sereno 11 10 93 1022 10 N 1.8
Ieri h: 20:30 sereno Sereno 12 11 93 1022 10 N 3.7
Ieri h: 20:00 sereno Sereno 13 12 93 1022 10 N 1.8
Ieri h: 19:30 sereno Sereno 14 13 93 1022 10 N 1.8
Ieri h: 19:00 sereno Sereno 15 14 93 1021 10 N 3.7
Ieri h: 18:30 sereno Sereno 15 12 82 1021 10 N 0
Ieri h: 18:00 sereno Sereno 18 12 67 1021 10 N 3.7
Ieri h: 17:30 sereno Sereno 21 11 52 1021 10 N 3.7
Ieri h: 17:00 sereno Sereno 22 11 49 1021 10 N 3.7
Ieri h: 16:30 sereno Sereno 25 9 36 1020 10 N 3.7
Ieri h: 16:00 sereno Sereno 25 9 36 1021 10 N 3.7
Ieri h: 15:30 sereno Sereno 24 9 38 1021 10 N 3.7
Ieri h: 15:00 sereno Sereno 25 9 36 1021 10 N 3.7
Ieri h: 14:30 sereno Sereno 24 9 38 1021 10 N 1.8
Ieri h: 14:00 sereno Sereno 24 10 41 1021 10 N 3.7
Ieri h: 13:30 sereno Sereno 23 10 43 1022 10 N 3.7
Ieri h: 13:00 sereno Sereno 22 11 49 1022 10 N 5.5
Ieri h: 12:30 sereno Sereno 21 12 56 1022 10 N 5.5
Ieri h: 12:00 sereno Sereno 20 13 64 1022 10 N 3.7
Ieri h: 11:30 sereno Sereno 18 13 72 1023 10 N 1.8
Ieri h: 11:00 sereno Sereno 15 13 87 1023 10 N 1.8
Ieri h: 10:30 sereno Sereno 13 12 93 1023 10 N 1.8
Ieri h: 10:00 poco_nuvoloso Poco Nuvoloso 11 11 100 1023 10 N 3.7
Ieri h: 09:30 foschia Foschia 9 9 100 1023 4 N 1.8
Ieri h: 09:00 nebbia Nebbia 7 7 100 1023 0.7 N 3.7
Ieri h: 08:30 nebbia Nebbia 6 6 100 1023 0.6 N 1.8
Ieri h: 08:00 nebbia Nebbia 6 6 100 1023 0.1 N 3.7
Ieri h: 07:30 nebbia Nebbia 5 5 100 1023 0.1 N 1.8
Ieri h: 07:00 nebbia Nebbia 5 5 100 1023 0.1 N 1.8
Ieri h: 06:30 nebbia Nebbia 5 5 100 1023 0.05 N 1.8
Ieri h: 06:00 nebbia Nebbia 5 5 100 1022 0.05 N 3.7
Ieri h: 05:30 nebbia Nebbia 5 5 100 1023 0.5 N 1.8
Ieri h: 05:00 nebbia Nebbia 5 5 100 1022 0.1 N 1.8